createdAt,value
2023-05-22T00:00:09.397Z,4.97
2023-05-22T00:03:07.143Z,4.80
2023-05-22T00:05:41.532Z,4.77
2023-05-22T00:08:15.454Z,4.97
2023-05-22T00:10:49.454Z,4.33
2023-05-22T00:13:23.583Z,4.70
2023-05-22T00:15:57.410Z,5.00
2023-05-22T00:18:31.624Z,5.10
2023-05-22T00:21:06.043Z,4.47
2023-05-22T00:23:40.541Z,5.00
2023-05-22T00:26:16.125Z,5.27
2023-05-22T00:28:48.936Z,4.60
2023-05-22T00:31:22.156Z,4.63
2023-05-22T00:33:56.254Z,4.77
2023-05-22T00:36:30.370Z,4.87
2023-05-22T00:39:04.265Z,4.87
2023-05-22T00:41:38.945Z,5.10
2023-05-22T00:44:12.403Z,4.70
2023-05-22T00:46:46.324Z,4.93
2023-05-22T00:49:21.174Z,5.33
2023-05-22T00:51:55.439Z,5.17
2023-05-22T00:54:29.908Z,5.03
2023-05-22T00:57:04.869Z,5.33
2023-05-22T00:59:39.480Z,5.00
2023-05-22T01:02:16.731Z,4.70
2023-05-22T01:04:50.558Z,5.10
2023-05-22T01:07:24.308Z,5.20
2023-05-22T01:09:59.050Z,5.00
2023-05-22T01:12:44.130Z,4.70
2023-05-22T01:15:25.969Z,5.30
2023-05-22T01:18:11.640Z,5.30
2023-05-22T01:20:52.181Z,5.30
2023-05-22T01:24:04.666Z,5.10
2023-05-22T01:27:11.448Z,5.10
2023-05-22T01:29:57.335Z,5.43
2023-05-22T01:32:32.941Z,4.70
2023-05-22T01:35:12.749Z,4.70
2023-05-22T01:37:47.662Z,5.00
2023-05-22T01:40:22.194Z,5.30
2023-05-22T01:42:56.332Z,4.87
2023-05-22T01:45:32.012Z,4.97
2023-05-22T01:48:06.540Z,5.50
2023-05-22T01:50:40.854Z,5.07
2023-05-22T01:53:25.972Z,5.00
2023-05-22T01:56:07.929Z,4.93
2023-05-22T01:58:46.677Z,5.10
2023-05-22T02:01:22.449Z,5.10
2023-05-22T02:03:59.557Z,5.67
2023-05-22T02:06:35.253Z,4.50
2023-05-22T02:09:11.828Z,5.07
2023-05-22T02:11:46.472Z,5.40
2023-05-22T02:14:20.420Z,5.50
2023-05-22T02:16:54.030Z,4.90
2023-05-22T02:19:27.949Z,5.20
2023-05-22T02:22:02.788Z,4.73
2023-05-22T02:24:38.772Z,5.53
2023-05-22T02:27:12.656Z,4.97
2023-05-22T02:29:45.958Z,5.40
2023-05-22T02:32:19.645Z,5.70
2023-05-22T02:34:55.146Z,5.13
2023-05-22T02:37:28.492Z,5.40
2023-05-22T02:40:02.682Z,5.77
2023-05-22T02:42:37.249Z,5.27
2023-05-22T02:45:14.353Z,5.50
2023-05-22T02:47:48.573Z,5.80
2023-05-22T02:50:23.104Z,5.30
2023-05-22T02:52:57.666Z,5.77
2023-05-22T02:55:31.463Z,5.40
2023-05-22T02:58:06.126Z,5.33
2023-05-22T03:00:39.817Z,4.90
2023-05-22T03:03:13.934Z,5.33
2023-05-22T03:05:50.190Z,5.10
2023-05-22T03:08:24.375Z,5.40
2023-05-22T03:10:59.228Z,5.57
2023-05-22T03:13:34.333Z,6.53
2023-05-22T03:16:10.318Z,5.27
2023-05-22T03:18:46.940Z,5.67
2023-05-22T03:21:20.975Z,5.20
2023-05-22T03:23:54.928Z,4.93
2023-05-22T03:26:29.615Z,5.10
2023-05-22T03:29:02.969Z,5.20
2023-05-22T03:31:38.132Z,5.10
2023-05-22T03:34:13.871Z,5.00
2023-05-22T03:36:49.130Z,5.20
2023-05-22T03:39:24.569Z,5.20
2023-05-22T03:42:04.321Z,4.90
2023-05-22T03:44:37.507Z,5.40
2023-05-22T03:47:13.159Z,5.37
2023-05-22T03:49:48.705Z,4.80
2023-05-22T03:52:23.452Z,4.93
2023-05-22T03:54:57.391Z,6.03
2023-05-22T03:57:32.594Z,5.40
2023-05-22T04:00:09.975Z,5.43
2023-05-22T04:02:47.361Z,5.20
2023-05-22T04:05:21.289Z,5.67
2023-05-22T04:07:56.699Z,6.07
2023-05-22T04:10:30.503Z,5.50
2023-05-22T04:13:05.127Z,5.30
2023-05-22T04:15:41.877Z,6.40
2023-05-22T04:18:16.009Z,5.90
2023-05-22T04:20:52.276Z,5.50
2023-05-22T04:23:26.412Z,5.83
2023-05-22T04:26:02.443Z,5.50
2023-05-22T04:28:38.249Z,5.13
2023-05-22T04:31:12.922Z,5.53
2023-05-22T04:33:48.490Z,4.90
2023-05-22T04:36:26.375Z,5.33
2023-05-22T04:39:00.585Z,5.10
2023-05-22T04:41:34.796Z,5.10
2023-05-22T04:44:08.661Z,5.10
2023-05-22T04:46:44.178Z,4.57
2023-05-22T04:49:18.471Z,5.20
2023-05-22T04:51:54.322Z,5.10
2023-05-22T04:54:28.323Z,5.00
2023-05-22T04:57:03.148Z,5.10
2023-05-22T04:59:39.368Z,5.23
2023-05-22T05:02:13.507Z,4.87
2023-05-22T05:04:47.133Z,4.27
2023-05-22T05:07:23.909Z,4.40
2023-05-22T05:09:57.541Z,4.23
2023-05-22T05:12:31.508Z,4.30
2023-05-22T05:15:05.681Z,4.60
2023-05-22T05:17:39.770Z,4.27
2023-05-22T05:20:16.298Z,4.20
2023-05-22T05:22:50.158Z,4.13
2023-05-22T05:25:24.831Z,3.97
2023-05-22T05:27:59.259Z,3.90
2023-05-22T05:30:32.991Z,3.70
2023-05-22T05:33:21.617Z,3.67
2023-05-22T05:36:21.554Z,4.10
2023-05-22T05:38:56.897Z,3.60
2023-05-22T05:41:31.289Z,3.70
2023-05-22T05:44:10.110Z,3.80
2023-05-22T05:46:44.925Z,3.67
2023-05-22T05:49:20.754Z,3.80
2023-05-22T05:51:54.634Z,3.80
2023-05-22T05:54:30.551Z,3.37
2023-05-22T05:57:10.206Z,3.20
2023-05-22T05:59:44.210Z,3.67
2023-05-22T06:02:47.598Z,3.27
2023-05-22T06:05:31.555Z,3.40
2023-05-22T06:08:26.958Z,3.17
2023-05-22T06:11:01.866Z,3.27
2023-05-22T06:13:42.177Z,2.50
2023-05-22T06:16:15.584Z,3.30
2023-05-22T06:18:49.854Z,3.10
2023-05-22T06:21:24.504Z,2.97
2023-05-22T06:23:58.929Z,3.40
2023-05-22T06:26:34.356Z,3.17
2023-05-22T06:29:07.775Z,2.83
2023-05-22T06:31:41.509Z,2.80
2023-05-22T06:34:15.805Z,2.93
2023-05-22T06:36:52.198Z,2.70
2023-05-22T06:39:29.157Z,2.90
2023-05-22T06:42:39.474Z,3.05
2023-05-22T06:45:32.370Z,3.33
2023-05-22T06:48:29.918Z,3.20
2023-05-22T06:51:24.616Z,3.27
2023-05-22T06:54:07.043Z,3.07
2023-05-22T06:56:42.422Z,3.27
2023-05-22T06:59:20.728Z,2.80
2023-05-22T07:02:13.580Z,2.77
2023-05-22T07:05:15.769Z,2.80
2023-05-22T07:07:56.689Z,3.30
2023-05-22T07:10:30.215Z,3.30
2023-05-22T07:13:05.878Z,3.20
2023-05-22T07:15:40.622Z,3.00
2023-05-22T07:18:15.470Z,3.03
2023-05-22T07:20:49.537Z,3.47
2023-05-22T07:23:26.493Z,3.30
2023-05-22T07:26:00.602Z,3.13
2023-05-22T07:28:38.043Z,3.40
2023-05-22T07:31:19.711Z,3.27
2023-05-22T07:33:53.449Z,3.03
2023-05-22T07:36:27.117Z,3.60
2023-05-22T07:39:01.140Z,3.40
2023-05-22T07:41:35.198Z,3.47
2023-05-22T07:44:08.793Z,3.27
2023-05-22T07:46:45.151Z,2.90
2023-05-22T07:49:23.851Z,3.30
2023-05-22T07:51:57.226Z,3.23
2023-05-22T07:54:32.563Z,3.00
2023-05-22T07:57:08.293Z,3.37
2023-05-22T07:59:45.736Z,3.27
2023-05-22T08:02:20.336Z,3.10
2023-05-22T08:04:54.388Z,3.27
2023-05-22T08:07:27.974Z,3.00
2023-05-22T08:10:03.798Z,3.20
2023-05-22T08:12:38.192Z,3.00
2023-05-22T08:15:13.675Z,2.90
2023-05-22T08:17:47.976Z,3.10
2023-05-22T08:20:22.679Z,3.00
2023-05-22T08:22:56.302Z,3.57
2023-05-22T08:25:30.281Z,3.47
2023-05-22T08:28:03.494Z,3.70
2023-05-22T08:30:38.489Z,3.70
2023-05-22T08:33:13.366Z,3.60
2023-05-22T08:35:47.146Z,3.13
2023-05-22T08:38:21.365Z,3.90
2023-05-22T08:40:57.099Z,3.40
2023-05-22T08:43:31.522Z,3.37
2023-05-22T08:46:08.882Z,4.07
2023-05-22T08:48:43.593Z,3.40
2023-05-22T08:51:20.615Z,3.50
2023-05-22T08:53:57.471Z,3.50
2023-05-22T08:56:35.225Z,3.67
2023-05-22T08:59:11.957Z,3.67
2023-05-22T09:01:45.221Z,3.40
2023-05-22T09:04:19.016Z,3.50
2023-05-22T09:06:53.148Z,3.30
2023-05-22T09:09:27.313Z,3.57
2023-05-22T09:12:01.933Z,3.83
2023-05-22T09:14:41.805Z,3.43
2023-05-22T09:17:18.728Z,3.93
2023-05-22T09:19:52.526Z,3.57
2023-05-22T09:22:36.316Z,3.73
2023-05-22T09:25:19.099Z,3.23
2023-05-22T09:27:53.012Z,3.80
2023-05-22T09:30:26.915Z,3.17
2023-05-22T09:33:00.354Z,3.80
2023-05-22T09:35:34.977Z,3.20
2023-05-22T09:38:10.150Z,3.70
2023-05-22T09:40:45.000Z,3.40
2023-05-22T09:43:22.122Z,3.87
2023-05-22T09:46:02.436Z,3.03
2023-05-22T09:48:38.992Z,3.75
2023-05-22T09:51:14.002Z,3.77
2023-05-22T09:53:49.675Z,3.40
2023-05-22T09:56:34.787Z,3.57
2023-05-22T09:59:15.389Z,3.37
2023-05-22T10:01:50.161Z,3.30
2023-05-22T10:04:28.198Z,3.07
2023-05-22T10:07:04.722Z,3.70
2023-05-22T10:09:41.027Z,3.87
2023-05-22T10:12:16.606Z,3.30
2023-05-22T10:14:51.882Z,3.27
2023-05-22T10:17:27.574Z,3.30
2023-05-22T10:20:01.217Z,3.00
2023-05-22T10:22:38.089Z,3.80
2023-05-22T10:25:14.221Z,3.13
2023-05-22T10:27:49.709Z,3.40
2023-05-22T10:30:30.892Z,3.23
2023-05-22T10:33:27.115Z,3.27
2023-05-22T10:36:04.418Z,3.17
2023-05-22T10:38:53.782Z,3.37
2023-05-22T10:41:27.959Z,3.30
2023-05-22T10:44:01.350Z,3.13
2023-05-22T10:46:38.233Z,3.00
2023-05-22T10:49:21.799Z,3.00
2023-05-22T10:51:59.235Z,3.07
2023-05-22T10:54:44.059Z,2.80
2023-05-22T10:57:21.362Z,3.33
2023-05-22T11:00:07.691Z,3.33
2023-05-22T11:02:44.592Z,3.43
2023-05-22T11:05:41.176Z,3.30
2023-05-22T11:08:36.261Z,3.23
2023-05-22T11:11:16.471Z,3.35
2023-05-22T11:13:54.758Z,3.07
2023-05-22T11:16:32.336Z,2.93
2023-05-22T11:19:22.577Z,3.33
2023-05-22T11:24:38.973Z,3.23
2023-05-22T11:27:13.450Z,3.27
2023-05-22T11:29:47.048Z,3.00
2023-05-22T11:32:22.761Z,3.20
2023-05-22T11:34:57.068Z,3.20
2023-05-22T11:37:30.847Z,3.17
2023-05-22T11:40:07.364Z,3.10
2023-05-22T11:42:41.394Z,3.33
2023-05-22T11:45:18.028Z,3.17
2023-05-22T11:47:52.064Z,3.03
2023-05-22T11:50:40.013Z,2.97
2023-05-22T11:53:17.018Z,3.30
2023-05-22T11:55:51.518Z,2.90
2023-05-22T11:58:31.050Z,2.80
2023-05-22T12:01:05.771Z,2.67
2023-05-22T12:03:39.806Z,3.20
2023-05-22T12:06:16.440Z,3.13
2023-05-22T12:08:51.070Z,2.93
2023-05-22T12:11:27.776Z,2.80
2023-05-22T12:14:07.811Z,2.70
2023-05-22T12:16:42.068Z,3.00
2023-05-22T12:19:15.829Z,2.90
2023-05-22T12:21:51.076Z,3.13
2023-05-22T12:24:24.864Z,3.03
2023-05-22T12:26:59.459Z,2.67
2023-05-22T12:29:32.373Z,2.63
2023-05-22T12:32:08.723Z,3.37
2023-05-22T12:34:50.469Z,3.00
2023-05-22T12:37:26.764Z,2.80
2023-05-22T12:40:01.650Z,2.70
2023-05-22T12:42:36.042Z,2.60
2023-05-22T12:45:13.572Z,2.90
2023-05-22T12:47:47.182Z,2.53
2023-05-22T12:50:21.142Z,2.73
2023-05-22T12:52:55.051Z,2.70
2023-05-22T12:55:29.347Z,2.83
2023-05-22T12:58:03.093Z,2.73
2023-05-22T13:00:37.829Z,2.87
2023-05-22T13:03:12.287Z,2.77
2023-05-22T13:05:45.809Z,2.80
2023-05-22T13:08:20.705Z,2.83
2023-05-22T13:10:54.851Z,2.77
2023-05-22T13:13:28.537Z,2.80
2023-05-22T13:16:02.998Z,2.83
2023-05-22T13:18:36.676Z,3.10
2023-05-22T13:21:10.985Z,2.93
2023-05-22T13:23:45.304Z,2.80
2023-05-22T13:26:19.241Z,2.93
2023-05-22T13:28:53.673Z,2.77
2023-05-22T13:31:27.628Z,2.70
2023-05-22T13:34:03.147Z,2.70
2023-05-22T13:36:37.817Z,2.80
2023-05-22T13:39:11.289Z,2.70
2023-05-22T13:41:45.964Z,2.80
2023-05-22T13:44:19.444Z,2.67
2023-05-22T13:46:53.704Z,3.07
2023-05-22T13:49:28.310Z,2.70
2023-05-22T13:52:02.299Z,2.63
2023-05-22T13:54:36.321Z,2.63
2023-05-22T13:57:10.889Z,3.13
2023-05-22T13:59:44.727Z,3.17
2023-05-22T14:02:19.942Z,3.10
2023-05-22T14:04:53.925Z,2.50
2023-05-22T14:07:31.076Z,3.07
2023-05-22T14:10:05.553Z,2.67
2023-05-22T14:12:39.290Z,2.77
2023-05-22T14:15:16.193Z,2.30
2023-05-22T14:17:50.334Z,3.20
2023-05-22T14:20:24.590Z,3.10
2023-05-22T14:22:58.886Z,2.83
2023-05-22T14:25:33.226Z,2.80
2023-05-22T14:28:06.625Z,2.43
2023-05-22T14:30:40.275Z,2.50
2023-05-22T14:33:14.238Z,2.63
2023-05-22T14:35:48.577Z,3.10
2023-05-22T14:38:22.576Z,2.97
2023-05-22T14:40:56.586Z,3.00
2023-05-22T14:43:30.822Z,2.90
2023-05-22T14:46:04.633Z,2.80
2023-05-22T14:48:38.773Z,2.97
2023-05-22T14:51:12.442Z,2.70
2023-05-22T14:53:46.027Z,2.50
2023-05-22T14:56:20.218Z,2.53
2023-05-22T14:58:53.924Z,3.00
2023-05-22T15:01:28.319Z,2.70
2023-05-22T15:04:01.942Z,2.93
2023-05-22T15:06:36.397Z,2.40
2023-05-22T15:09:09.705Z,2.67
2023-05-22T15:11:46.052Z,2.33
2023-05-22T15:14:21.674Z,2.97
2023-05-22T15:16:55.036Z,2.80
2023-05-22T15:19:29.222Z,2.50
2023-05-22T15:22:15.642Z,3.07
2023-05-22T15:25:07.074Z,2.80
2023-05-22T15:27:42.260Z,2.57
2023-05-22T15:30:17.327Z,2.50
2023-05-22T15:32:51.585Z,3.00
2023-05-22T15:35:25.899Z,2.70
2023-05-22T15:38:00.194Z,2.30
2023-05-22T15:40:33.708Z,2.70
2023-05-22T15:43:08.250Z,2.60
2023-05-22T15:45:42.782Z,2.67
2023-05-22T15:48:18.073Z,2.60
2023-05-22T15:50:52.825Z,2.50
2023-05-22T15:53:26.629Z,2.47
2023-05-22T15:56:00.061Z,2.90
2023-05-22T15:58:34.118Z,2.80
2023-05-22T16:01:08.482Z,2.67
2023-05-22T16:03:42.374Z,2.47
2023-05-22T16:06:17.682Z,2.63
2023-05-22T16:08:51.920Z,3.23
2023-05-22T16:11:26.473Z,3.13
2023-05-22T16:14:00.761Z,2.67
2023-05-22T16:16:36.056Z,2.70
2023-05-22T16:19:11.700Z,2.33
2023-05-22T16:21:45.609Z,2.23
2023-05-22T16:24:20.532Z,2.70
2023-05-22T16:26:53.769Z,2.37
2023-05-22T16:29:27.358Z,2.73
2023-05-22T16:32:01.531Z,2.97
2023-05-22T16:34:36.737Z,2.60
2023-05-22T16:37:10.324Z,2.70
2023-05-22T16:39:46.683Z,2.73
2023-05-22T16:42:19.982Z,2.77
2023-05-22T16:44:52.781Z,3.07
2023-05-22T16:47:27.110Z,2.83
2023-05-22T16:50:01.065Z,2.57
2023-05-22T16:52:35.101Z,2.63
2023-05-22T16:55:11.962Z,2.80
2023-05-22T16:57:45.684Z,2.70
2023-05-22T17:00:22.439Z,3.00
2023-05-22T17:02:57.901Z,2.80
2023-05-22T17:05:32.823Z,3.30
2023-05-22T17:08:07.265Z,2.80
2023-05-22T17:10:41.874Z,3.10
2023-05-22T17:13:21.053Z,2.83
2023-05-22T17:15:55.149Z,2.83
2023-05-22T17:18:28.811Z,2.60
2023-05-22T17:21:04.618Z,3.10
2023-05-22T17:23:39.505Z,2.97
2023-05-22T17:26:14.333Z,2.90
2023-05-22T17:28:48.335Z,3.33
2023-05-22T17:31:22.107Z,2.97
2023-05-22T17:33:56.966Z,2.90
2023-05-22T17:36:30.360Z,3.30
2023-05-22T17:39:03.435Z,3.47
2023-05-22T17:41:36.769Z,3.33
2023-05-22T17:44:11.366Z,3.03
2023-05-22T17:46:45.624Z,3.10
2023-05-22T17:49:19.315Z,3.47
2023-05-22T17:51:53.250Z,3.50
2023-05-22T17:54:26.587Z,3.50
2023-05-22T17:57:00.801Z,3.23
2023-05-22T17:59:34.901Z,3.37
2023-05-22T18:02:09.391Z,3.37
2023-05-22T18:04:44.056Z,3.23
2023-05-22T18:07:18.105Z,3.57
2023-05-22T18:09:52.078Z,3.80
2023-05-22T18:12:31.750Z,3.10
2023-05-22T18:15:05.860Z,3.13
2023-05-22T18:17:41.497Z,3.50
2023-05-22T18:20:17.075Z,3.67
2023-05-22T18:22:50.601Z,3.93
2023-05-22T18:25:24.514Z,3.90
2023-05-22T18:27:58.064Z,4.00
2023-05-22T18:30:32.586Z,3.47
2023-05-22T18:33:06.404Z,3.50
2023-05-22T18:35:40.378Z,3.30
2023-05-22T18:38:14.277Z,4.10
2023-05-22T18:40:48.710Z,3.57
2023-05-22T18:43:27.974Z,3.70
2023-05-22T18:46:01.987Z,4.13
2023-05-22T18:48:35.489Z,4.03
2023-05-22T18:51:09.473Z,3.63
2023-05-22T18:53:43.588Z,3.50
2023-05-22T18:56:17.412Z,3.97
2023-05-22T18:58:51.673Z,3.00
2023-05-22T19:01:26.789Z,4.03
2023-05-22T19:04:00.821Z,3.20
2023-05-22T19:06:34.757Z,2.97
2023-05-22T19:09:09.731Z,3.37
2023-05-22T19:11:43.664Z,3.13
2023-05-22T19:14:17.827Z,3.87
2023-05-22T19:16:51.389Z,3.60
2023-05-22T19:19:24.934Z,3.43
2023-05-22T19:21:58.802Z,3.47
2023-05-22T19:24:32.973Z,3.90
2023-05-22T19:27:08.077Z,4.03
2023-05-22T19:29:42.302Z,3.57
2023-05-22T19:32:15.880Z,3.40
2023-05-22T19:34:51.139Z,3.43
2023-05-22T19:37:25.821Z,3.47
2023-05-22T19:39:59.875Z,3.37
2023-05-22T19:42:33.633Z,4.00
2023-05-22T19:45:07.874Z,3.50
2023-05-22T19:47:42.274Z,3.43
2023-05-22T19:50:17.562Z,3.77
2023-05-22T19:52:51.736Z,3.73
2023-05-22T19:55:25.818Z,3.50
2023-05-22T19:57:59.745Z,3.80
2023-05-22T20:00:33.826Z,3.60
2023-05-22T20:03:08.835Z,4.37
2023-05-22T20:05:43.299Z,3.90
2023-05-22T20:08:17.820Z,4.13
2023-05-22T20:10:51.743Z,4.03
2023-05-22T20:13:25.501Z,4.00
2023-05-22T20:16:02.767Z,3.83
2023-05-22T20:18:41.196Z,4.20
2023-05-22T20:21:15.510Z,3.77
2023-05-22T20:23:49.368Z,4.47
2023-05-22T20:26:23.265Z,4.03
2023-05-22T20:28:57.674Z,4.27
2023-05-22T20:31:31.568Z,4.63
2023-05-22T20:34:05.352Z,4.30
2023-05-22T20:36:40.161Z,4.60
2023-05-22T20:39:13.748Z,4.30
2023-05-22T20:41:49.809Z,4.00
2023-05-22T20:44:24.790Z,4.60
2023-05-22T20:46:58.923Z,4.50
2023-05-22T20:49:34.978Z,4.90
2023-05-22T20:52:10.156Z,4.33
2023-05-22T20:54:43.985Z,4.10
2023-05-22T20:57:18.465Z,4.50
2023-05-22T20:59:52.887Z,4.70
2023-05-22T21:02:27.090Z,4.63
2023-05-22T21:05:00.532Z,4.30
2023-05-22T21:07:33.974Z,4.60
2023-05-22T21:10:10.056Z,4.30
2023-05-22T21:12:43.716Z,4.63
2023-05-22T21:15:17.278Z,4.93
2023-05-22T21:17:52.415Z,4.63
2023-05-22T21:20:28.499Z,4.53
2023-05-22T21:23:02.019Z,4.23
2023-05-22T21:25:36.804Z,4.57
2023-05-22T21:28:11.060Z,5.27
2023-05-22T21:30:44.555Z,4.23
2023-05-22T21:33:18.279Z,5.23
2023-05-22T21:35:52.376Z,4.97
2023-05-22T21:38:26.186Z,4.60
2023-05-22T21:41:01.014Z,4.80
2023-05-22T21:43:34.803Z,4.40
2023-05-22T21:46:08.916Z,4.90
2023-05-22T21:48:43.506Z,5.23
2023-05-22T21:51:17.668Z,5.37
2023-05-22T21:53:51.341Z,5.50
2023-05-22T21:56:25.469Z,5.60
2023-05-22T21:58:59.901Z,5.97
2023-05-22T22:01:33.411Z,6.17
2023-05-22T22:04:07.717Z,6.23
2023-05-22T22:06:41.250Z,6.63
2023-05-22T22:09:14.909Z,7.13
2023-05-22T22:11:48.934Z,7.17
2023-05-22T22:14:24.487Z,7.30
2023-05-22T22:17:00.218Z,8.70
2023-05-22T22:19:34.570Z,8.50
2023-05-22T22:22:09.151Z,8.23
2023-05-22T22:24:43.334Z,8.40
2023-05-22T22:27:17.805Z,9.10
2023-05-22T22:29:51.131Z,9.37
2023-05-22T22:32:25.485Z,9.17
2023-05-22T22:34:59.138Z,8.00
2023-05-22T22:37:33.310Z,8.60
2023-05-22T22:40:09.350Z,8.40
2023-05-22T22:42:43.033Z,8.03
2023-05-22T22:45:16.283Z,7.30
2023-05-22T22:47:50.243Z,7.60
2023-05-22T22:50:25.540Z,7.77
2023-05-22T22:52:59.259Z,7.20
2023-05-22T22:55:33.096Z,7.30
2023-05-22T22:58:08.106Z,7.10
2023-05-22T23:00:41.656Z,6.63
2023-05-22T23:03:14.966Z,6.97
2023-05-22T23:05:48.674Z,7.80
2023-05-22T23:08:22.800Z,7.30
2023-05-22T23:10:56.557Z,7.03
2023-05-22T23:13:31.133Z,7.50
2023-05-22T23:16:04.481Z,7.73
2023-05-22T23:18:38.760Z,8.03
2023-05-22T23:21:12.850Z,7.00
2023-05-22T23:23:46.920Z,6.57
2023-05-22T23:26:20.719Z,7.23
2023-05-22T23:28:54.645Z,7.30
2023-05-22T23:31:30.483Z,7.73
2023-05-22T23:34:06.455Z,6.87
2023-05-22T23:36:40.000Z,7.60
2023-05-22T23:39:13.430Z,7.23
2023-05-22T23:41:47.359Z,7.30
2023-05-22T23:44:21.665Z,7.57
2023-05-22T23:46:54.914Z,6.60
2023-05-22T23:49:28.492Z,6.73
2023-05-22T23:52:01.649Z,7.13
2023-05-22T23:54:35.659Z,6.63
2023-05-22T23:57:10.717Z,7.03
2023-05-22T23:59:45.196Z,6.87
